sensor_id;sensor_type;location;lat;lon;timestamp;temperature;humidity
16267;DHT22;8241;48.786;9.250;2023-10-08T00:02:06;15.40;88.30
16267;DHT22;8241;48.786;9.250;2023-10-08T00:04:36;15.40;88.30
16267;DHT22;8241;48.786;9.250;2023-10-08T00:07:03;15.50;87.60
16267;DHT22;8241;48.786;9.250;2023-10-08T00:09:33;15.50;88.20
16267;DHT22;8241;48.786;9.250;2023-10-08T00:12:03;15.60;86.30
16267;DHT22;8241;48.786;9.250;2023-10-08T00:14:30;15.70;85.30
16267;DHT22;8241;48.786;9.250;2023-10-08T00:16:58;15.70;85.20
16267;DHT22;8241;48.786;9.250;2023-10-08T00:19:25;15.70;86.10
16267;DHT22;8241;48.786;9.250;2023-10-08T00:22:04;15.70;86.20
16267;DHT22;8241;48.786;9.250;2023-10-08T00:24:32;15.70;86.70
16267;DHT22;8241;48.786;9.250;2023-10-08T00:26:59;15.60;87.30
16267;DHT22;8241;48.786;9.250;2023-10-08T00:29:32;15.50;87.40
16267;DHT22;8241;48.786;9.250;2023-10-08T00:31:59;15.50;87.90
16267;DHT22;8241;48.786;9.250;2023-10-08T00:34:37;15.50;90.10
16267;DHT22;8241;48.786;9.250;2023-10-08T00:37:09;15.30;91.00
16267;DHT22;8241;48.786;9.250;2023-10-08T00:39:37;15.10;91.60
16267;DHT22;8241;48.786;9.250;2023-10-08T00:42:06;15.10;92.10
16267;DHT22;8241;48.786;9.250;2023-10-08T00:44:34;15.00;92.40
16267;DHT22;8241;48.786;9.250;2023-10-08T00:47:07;15.00;92.30
16267;DHT22;8241;48.786;9.250;2023-10-08T00:49:37;14.90;92.50
16267;DHT22;8241;48.786;9.250;2023-10-08T00:52:22;14.90;92.80
16267;DHT22;8241;48.786;9.250;2023-10-08T00:54:55;14.80;92.80
16267;DHT22;8241;48.786;9.250;2023-10-08T00:57:34;14.80;92.80
16267;DHT22;8241;48.786;9.250;2023-10-08T01:00:03;14.80;92.80
16267;DHT22;8241;48.786;9.250;2023-10-08T01:02:40;14.80;92.90
16267;DHT22;8241;48.786;9.250;2023-10-08T01:05:12;14.80;93.00
16267;DHT22;8241;48.786;9.250;2023-10-08T01:07:46;14.80;92.90
16267;DHT22;8241;48.786;9.250;2023-10-08T01:10:17;14.80;92.50
16267;DHT22;8241;48.786;9.250;2023-10-08T01:12:46;14.80;92.70
16267;DHT22;8241;48.786;9.250;2023-10-08T01:15:28;14.80;93.50
16267;DHT22;8241;48.786;9.250;2023-10-08T01:17:57;14.80;92.90
16267;DHT22;8241;48.786;9.250;2023-10-08T01:20:26;14.80;92.80
16267;DHT22;8241;48.786;9.250;2023-10-08T01:23:17;14.80;93.10
16267;DHT22;8241;48.786;9.250;2023-10-08T01:25:47;14.80;93.20
16267;DHT22;8241;48.786;9.250;2023-10-08T01:28:16;14.70;93.50
16267;DHT22;8241;48.786;9.250;2023-10-08T01:30:51;14.60;93.40
16267;DHT22;8241;48.786;9.250;2023-10-08T01:33:20;14.60;93.40
16267;DHT22;8241;48.786;9.250;2023-10-08T01:35:55;14.60;93.40
16267;DHT22;8241;48.786;9.250;2023-10-08T01:38:28;14.60;93.50
16267;DHT22;8241;48.786;9.250;2023-10-08T01:40:56;14.50;93.70
16267;DHT22;8241;48.786;9.250;2023-10-08T01:43:28;14.50;93.90
16267;DHT22;8241;48.786;9.250;2023-10-08T01:45:55;14.40;93.90
16267;DHT22;8241;48.786;9.250;2023-10-08T01:48:23;14.40;93.90
16267;DHT22;8241;48.786;9.250;2023-10-08T01:50:54;14.40;94.00
16267;DHT22;8241;48.786;9.250;2023-10-08T01:53:25;14.40;94.00
16267;DHT22;8241;48.786;9.250;2023-10-08T01:55:54;14.50;94.10
16267;DHT22;8241;48.786;9.250;2023-10-08T01:58:21;14.50;94.20
16267;DHT22;8241;48.786;9.250;2023-10-08T02:00:49;14.50;94.10
16267;DHT22;8241;48.786;9.250;2023-10-08T02:03:17;14.40;93.90
16267;DHT22;8241;48.786;9.250;2023-10-08T02:05:46;14.50;94.00
16267;DHT22;8241;48.786;9.250;2023-10-08T02:08:14;14.40;94.00
16267;DHT22;8241;48.786;9.250;2023-10-08T02:10:43;14.40;94.10
16267;DHT22;8241;48.786;9.250;2023-10-08T02:13:14;14.50;94.50
16267;DHT22;8241;48.786;9.250;2023-10-08T02:15:44;14.40;94.50
16267;DHT22;8241;48.786;9.250;2023-10-08T02:18:11;14.40;94.60
16267;DHT22;8241;48.786;9.250;2023-10-08T02:20:39;14.40;94.70
16267;DHT22;8241;48.786;9.250;2023-10-08T02:23:07;14.30;94.80
16267;DHT22;8241;48.786;9.250;2023-10-08T02:25:34;14.30;94.70
16267;DHT22;8241;48.786;9.250;2023-10-08T02:28:02;14.20;94.90
16267;DHT22;8241;48.786;9.250;2023-10-08T02:30:30;14.20;94.80
16267;DHT22;8241;48.786;9.250;2023-10-08T02:32:57;14.20;95.10
16267;DHT22;8241;48.786;9.250;2023-10-08T02:35:24;14.20;95.30
16267;DHT22;8241;48.786;9.250;2023-10-08T02:37:52;14.10;95.40
16267;DHT22;8241;48.786;9.250;2023-10-08T02:40:20;14.10;95.40
16267;DHT22;8241;48.786;9.250;2023-10-08T02:42:52;14.00;95.40
16267;DHT22;8241;48.786;9.250;2023-10-08T02:45:24;14.00;95.50
16267;DHT22;8241;48.786;9.250;2023-10-08T02:47:53;14.00;95.40
16267;DHT22;8241;48.786;9.250;2023-10-08T02:50:20;14.00;95.30
16267;DHT22;8241;48.786;9.250;2023-10-08T02:52:48;14.00;95.20
16267;DHT22;8241;48.786;9.250;2023-10-08T02:55:16;13.90;95.10
16267;DHT22;8241;48.786;9.250;2023-10-08T02:57:54;13.90;95.50
16267;DHT22;8241;48.786;9.250;2023-10-08T03:00:21;13.90;95.30
16267;DHT22;8241;48.786;9.250;2023-10-08T03:02:58;13.90;95.50
16267;DHT22;8241;48.786;9.250;2023-10-08T03:05:43;13.80;95.30
16267;DHT22;8241;48.786;9.250;2023-10-08T03:08:12;13.70;95.20
16267;DHT22;8241;48.786;9.250;2023-10-08T03:10:46;13.70;95.30
16267;DHT22;8241;48.786;9.250;2023-10-08T03:13:14;13.70;95.50
16267;DHT22;8241;48.786;9.250;2023-10-08T03:15:43;13.70;95.50
16267;DHT22;8241;48.786;9.250;2023-10-08T03:18:24;13.70;95.00
16267;DHT22;8241;48.786;9.250;2023-10-08T03:20:51;13.70;95.10
16267;DHT22;8241;48.786;9.250;2023-10-08T03:23:18;13.70;95.00
16267;DHT22;8241;48.786;9.250;2023-10-08T03:25:59;13.70;95.10
16267;DHT22;8241;48.786;9.250;2023-10-08T03:28:35;13.70;94.40
16267;DHT22;8241;48.786;9.250;2023-10-08T03:31:04;13.80;93.70
16267;DHT22;8241;48.786;9.250;2023-10-08T03:33:34;13.70;93.80
16267;DHT22;8241;48.786;9.250;2023-10-08T03:36:03;13.80;93.60
16267;DHT22;8241;48.786;9.250;2023-10-08T03:38:46;13.70;93.40
16267;DHT22;8241;48.786;9.250;2023-10-08T03:41:17;13.80;94.00
16267;DHT22;8241;48.786;9.250;2023-10-08T03:43:46;13.70;94.30
16267;DHT22;8241;48.786;9.250;2023-10-08T03:46:21;13.70;94.50
16267;DHT22;8241;48.786;9.250;2023-10-08T03:48:51;13.70;95.00
16267;DHT22;8241;48.786;9.250;2023-10-08T03:51:20;13.70;94.80
16267;DHT22;8241;48.786;9.250;2023-10-08T03:53:48;13.60;94.90
16267;DHT22;8241;48.786;9.250;2023-10-08T03:56:42;13.60;95.00
16267;DHT22;8241;48.786;9.250;2023-10-08T03:59:12;13.60;95.20
16267;DHT22;8241;48.786;9.250;2023-10-08T04:01:40;13.60;95.40
16267;DHT22;8241;48.786;9.250;2023-10-08T04:04:09;13.50;95.60
16267;DHT22;8241;48.786;9.250;2023-10-08T04:06:40;13.50;95.50
16267;DHT22;8241;48.786;9.250;2023-10-08T04:09:15;13.50;95.70
16267;DHT22;8241;48.786;9.250;2023-10-08T04:11:51;13.50;95.80
16267;DHT22;8241;48.786;9.250;2023-10-08T04:14:22;13.40;95.90
16267;DHT22;8241;48.786;9.250;2023-10-08T04:16:50;13.30;96.20
16267;DHT22;8241;48.786;9.250;2023-10-08T04:19:20;13.30;96.20
16267;DHT22;8241;48.786;9.250;2023-10-08T04:21:50;13.30;96.20
16267;DHT22;8241;48.786;9.250;2023-10-08T04:24:21;13.30;96.80
16267;DHT22;8241;48.786;9.250;2023-10-08T04:26:55;13.30;96.50
16267;DHT22;8241;48.786;9.250;2023-10-08T04:29:23;13.20;96.50
16267;DHT22;8241;48.786;9.250;2023-10-08T04:31:50;13.20;96.30
16267;DHT22;8241;48.786;9.250;2023-10-08T04:34:29;13.20;96.20
16267;DHT22;8241;48.786;9.250;2023-10-08T04:36:58;13.20;96.20
16267;DHT22;8241;48.786;9.250;2023-10-08T04:39:29;13.20;96.40
16267;DHT22;8241;48.786;9.250;2023-10-08T04:41:58;13.20;96.50
16267;DHT22;8241;48.786;9.250;2023-10-08T04:44:31;13.30;96.50
16267;DHT22;8241;48.786;9.250;2023-10-08T04:46:59;13.20;96.40
16267;DHT22;8241;48.786;9.250;2023-10-08T04:49:33;13.20;96.60
16267;DHT22;8241;48.786;9.250;2023-10-08T04:52:04;13.20;96.70
16267;DHT22;8241;48.786;9.250;2023-10-08T04:54:34;13.20;96.90
16267;DHT22;8241;48.786;9.250;2023-10-08T04:57:07;13.20;97.00
16267;DHT22;8241;48.786;9.250;2023-10-08T04:59:41;13.20;96.90
16267;DHT22;8241;48.786;9.250;2023-10-08T05:02:10;13.20;97.00
16267;DHT22;8241;48.786;9.250;2023-10-08T05:04:47;13.20;97.00
16267;DHT22;8241;48.786;9.250;2023-10-08T05:07:33;13.20;97.00
16267;DHT22;8241;48.786;9.250;2023-10-08T05:10:23;13.10;96.80
16267;DHT22;8241;48.786;9.250;2023-10-08T05:13:07;13.00;96.60
16267;DHT22;8241;48.786;9.250;2023-10-08T05:15:42;13.00;96.70
16267;DHT22;8241;48.786;9.250;2023-10-08T05:18:28;12.90;96.80
16267;DHT22;8241;48.786;9.250;2023-10-08T05:21:16;12.90;97.10
16267;DHT22;8241;48.786;9.250;2023-10-08T05:23:51;12.90;97.20
16267;DHT22;8241;48.786;9.250;2023-10-08T05:26:41;12.90;97.40
16267;DHT22;8241;48.786;9.250;2023-10-08T05:29:09;12.90;97.40
16267;DHT22;8241;48.786;9.250;2023-10-08T05:31:53;12.80;97.70
16267;DHT22;8241;48.786;9.250;2023-10-08T05:34:48;12.70;97.70
16267;DHT22;8241;48.786;9.250;2023-10-08T05:37:41;12.80;97.70
16267;DHT22;8241;48.786;9.250;2023-10-08T05:40:09;12.80;97.50
16267;DHT22;8241;48.786;9.250;2023-10-08T05:42:47;12.80;97.50
16267;DHT22;8241;48.786;9.250;2023-10-08T05:45:15;12.80;97.60
16267;DHT22;8241;48.786;9.250;2023-10-08T05:47:56;12.80;97.40
16267;DHT22;8241;48.786;9.250;2023-10-08T05:50:37;12.90;97.40
16267;DHT22;8241;48.786;9.250;2023-10-08T05:53:10;12.90;97.40
16267;DHT22;8241;48.786;9.250;2023-10-08T05:56:04;13.00;97.50
16267;DHT22;8241;48.786;9.250;2023-10-08T05:58:53;13.00;97.60
16267;DHT22;8241;48.786;9.250;2023-10-08T06:01:39;13.00;97.70
16267;DHT22;8241;48.786;9.250;2023-10-08T06:04:07;13.00;97.70
16267;DHT22;8241;48.786;9.250;2023-10-08T06:06:56;13.00;97.80
16267;DHT22;8241;48.786;9.250;2023-10-08T06:09:39;13.00;97.50
16267;DHT22;8241;48.786;9.250;2023-10-08T06:12:06;13.00;97.70
16267;DHT22;8241;48.786;9.250;2023-10-08T06:14:38;13.00;97.60
16267;DHT22;8241;48.786;9.250;2023-10-08T06:17:34;13.00;97.60
16267;DHT22;8241;48.786;9.250;2023-10-08T06:20:22;13.00;97.90
16267;DHT22;8241;48.786;9.250;2023-10-08T06:22:52;12.90;98.00
16267;DHT22;8241;48.786;9.250;2023-10-08T06:25:26;13.00;97.90
16267;DHT22;8241;48.786;9.250;2023-10-08T06:27:53;13.00;97.80
16267;DHT22;8241;48.786;9.250;2023-10-08T06:30:23;13.00;97.60
16267;DHT22;8241;48.786;9.250;2023-10-08T06:32:56;12.90;97.90
16267;DHT22;8241;48.786;9.250;2023-10-08T06:35:23;13.00;97.90
16267;DHT22;8241;48.786;9.250;2023-10-08T06:37:54;12.90;97.80
16267;DHT22;8241;48.786;9.250;2023-10-08T06:40:26;13.00;97.80
16267;DHT22;8241;48.786;9.250;2023-10-08T06:43:08;13.00;97.70
16267;DHT22;8241;48.786;9.250;2023-10-08T06:45:47;13.10;97.60
16267;DHT22;8241;48.786;9.250;2023-10-08T06:48:18;13.10;97.60
16267;DHT22;8241;48.786;9.250;2023-10-08T06:50:47;13.20;97.70
16267;DHT22;8241;48.786;9.250;2023-10-08T06:53:14;13.10;97.40
16267;DHT22;8241;48.786;9.250;2023-10-08T06:55:45;13.20;97.60
16267;DHT22;8241;48.786;9.250;2023-10-08T06:58:13;13.20;97.40
16267;DHT22;8241;48.786;9.250;2023-10-08T07:00:41;13.20;97.40
16267;DHT22;8241;48.786;9.250;2023-10-08T07:03:15;13.20;97.40
16267;DHT22;8241;48.786;9.250;2023-10-08T07:05:44;13.30;97.40
16267;DHT22;8241;48.786;9.250;2023-10-08T07:08:23;13.30;97.10
16267;DHT22;8241;48.786;9.250;2023-10-08T07:10:52;13.40;97.30
16267;DHT22;8241;48.786;9.250;2023-10-08T07:13:22;13.70;97.60
16267;DHT22;8241;48.786;9.250;2023-10-08T07:15:50;14.00;97.30
16267;DHT22;8241;48.786;9.250;2023-10-08T07:18:18;14.30;96.60
16267;DHT22;8241;48.786;9.250;2023-10-08T07:20:51;14.50;96.40
16267;DHT22;8241;48.786;9.250;2023-10-08T07:23:20;14.70;96.30
16267;DHT22;8241;48.786;9.250;2023-10-08T07:25:57;14.90;95.90
16267;DHT22;8241;48.786;9.250;2023-10-08T07:28:36;14.90;95.70
16267;DHT22;8241;48.786;9.250;2023-10-08T07:31:05;15.00;95.60
16267;DHT22;8241;48.786;9.250;2023-10-08T07:33:35;15.10;95.10
16267;DHT22;8241;48.786;9.250;2023-10-08T07:36:02;15.10;95.10
16267;DHT22;8241;48.786;9.250;2023-10-08T07:38:38;15.10;94.90
16267;DHT22;8241;48.786;9.250;2023-10-08T07:41:06;15.20;94.60
16267;DHT22;8241;48.786;9.250;2023-10-08T07:43:32;15.10;94.10
16267;DHT22;8241;48.786;9.250;2023-10-08T07:45:59;14.90;94.30
16267;DHT22;8241;48.786;9.250;2023-10-08T07:48:26;15.00;94.70
16267;DHT22;8241;48.786;9.250;2023-10-08T07:50:56;14.90;94.50
16267;DHT22;8241;48.786;9.250;2023-10-08T07:53:23;15.00;94.70
16267;DHT22;8241;48.786;9.250;2023-10-08T07:55:51;15.00;94.70
16267;DHT22;8241;48.786;9.250;2023-10-08T07:58:19;15.00;94.70
16267;DHT22;8241;48.786;9.250;2023-10-08T08:00:46;15.00;94.70
16267;DHT22;8241;48.786;9.250;2023-10-08T08:03:19;15.10;94.80
16267;DHT22;8241;48.786;9.250;2023-10-08T08:05:46;15.10;94.70
16267;DHT22;8241;48.786;9.250;2023-10-08T08:08:14;15.10;94.70
16267;DHT22;8241;48.786;9.250;2023-10-08T08:10:44;15.20;94.60
16267;DHT22;8241;48.786;9.250;2023-10-08T08:13:11;15.20;94.50
16267;DHT22;8241;48.786;9.250;2023-10-08T08:15:47;15.30;94.60
16267;DHT22;8241;48.786;9.250;2023-10-08T08:18:16;15.30;95.00
16267;DHT22;8241;48.786;9.250;2023-10-08T08:20:48;15.40;95.10
16267;DHT22;8241;48.786;9.250;2023-10-08T08:23:15;15.60;95.10
16267;DHT22;8241;48.786;9.250;2023-10-08T08:25:43;15.70;95.20
16267;DHT22;8241;48.786;9.250;2023-10-08T08:28:22;15.90;95.30
16267;DHT22;8241;48.786;9.250;2023-10-08T08:30:51;16.10;95.30
16267;DHT22;8241;48.786;9.250;2023-10-08T08:33:20;16.20;94.80
16267;DHT22;8241;48.786;9.250;2023-10-08T08:35:57;16.40;94.40
16267;DHT22;8241;48.786;9.250;2023-10-08T08:38:25;16.40;93.20
16267;DHT22;8241;48.786;9.250;2023-10-08T08:41:01;16.50;93.10
16267;DHT22;8241;48.786;9.250;2023-10-08T08:43:33;16.50;93.10
16267;DHT22;8241;48.786;9.250;2023-10-08T08:46:02;16.50;92.70
16267;DHT22;8241;48.786;9.250;2023-10-08T08:48:33;16.60;92.90
16267;DHT22;8241;48.786;9.250;2023-10-08T08:51:00;16.70;92.30
16267;DHT22;8241;48.786;9.250;2023-10-08T08:53:27;16.80;92.30
16267;DHT22;8241;48.786;9.250;2023-10-08T08:55:55;17.10;92.30
16267;DHT22;8241;48.786;9.250;2023-10-08T08:58:22;17.30;92.20
16267;DHT22;8241;48.786;9.250;2023-10-08T09:00:52;17.60;91.90
16267;DHT22;8241;48.786;9.250;2023-10-08T09:03:21;17.70;91.90
16267;DHT22;8241;48.786;9.250;2023-10-08T09:05:56;17.90;91.50
16267;DHT22;8241;48.786;9.250;2023-10-08T09:08:24;18.10;91.00
16267;DHT22;8241;48.786;9.250;2023-10-08T09:10:57;18.20;90.80
16267;DHT22;8241;48.786;9.250;2023-10-08T09:13:27;18.40;90.50
16267;DHT22;8241;48.786;9.250;2023-10-08T09:15:57;18.80;90.40
16267;DHT22;8241;48.786;9.250;2023-10-08T09:18:25;19.40;87.90
16267;DHT22;8241;48.786;9.250;2023-10-08T09:20:53;20.10;85.80
16267;DHT22;8241;48.786;9.250;2023-10-08T09:23:20;20.70;83.40
16267;DHT22;8241;48.786;9.250;2023-10-08T09:25:49;21.40;81.00
16267;DHT22;8241;48.786;9.250;2023-10-08T09:28:17;22.10;77.30
16267;DHT22;8241;48.786;9.250;2023-10-08T09:30:44;22.50;76.30
16267;DHT22;8241;48.786;9.250;2023-10-08T09:33:14;22.30;75.80
16267;DHT22;8241;48.786;9.250;2023-10-08T09:35:43;22.00;75.50
16267;DHT22;8241;48.786;9.250;2023-10-08T09:38:09;21.70;76.80
16267;DHT22;8241;48.786;9.250;2023-10-08T09:40:38;21.50;77.30
16267;DHT22;8241;48.786;9.250;2023-10-08T09:43:06;21.80;76.90
16267;DHT22;8241;48.786;9.250;2023-10-08T09:45:34;21.90;76.10
16267;DHT22;8241;48.786;9.250;2023-10-08T09:48:05;22.00;76.10
16267;DHT22;8241;48.786;9.250;2023-10-08T09:50:37;21.90;76.10
16267;DHT22;8241;48.786;9.250;2023-10-08T09:53:08;21.70;77.50
16267;DHT22;8241;48.786;9.250;2023-10-08T09:55:46;21.60;78.90
16267;DHT22;8241;48.786;9.250;2023-10-08T09:58:16;21.50;79.70
16267;DHT22;8241;48.786;9.250;2023-10-08T10:00:44;21.20;80.60
16267;DHT22;8241;48.786;9.250;2023-10-08T10:03:14;21.00;80.70
16267;DHT22;8241;48.786;9.250;2023-10-08T10:05:42;20.80;82.30
16267;DHT22;8241;48.786;9.250;2023-10-08T10:08:11;20.90;82.60
16267;DHT22;8241;48.786;9.250;2023-10-08T10:10:38;21.00;81.20
16267;DHT22;8241;48.786;9.250;2023-10-08T10:13:10;21.10;81.30
16267;DHT22;8241;48.786;9.250;2023-10-08T10:15:37;21.20;81.80
16267;DHT22;8241;48.786;9.250;2023-10-08T10:18:13;21.30;81.40
16267;DHT22;8241;48.786;9.250;2023-10-08T10:20:44;21.30;80.10
16267;DHT22;8241;48.786;9.250;2023-10-08T10:23:36;21.30;80.90
16267;DHT22;8241;48.786;9.250;2023-10-08T10:26:03;21.40;81.20
16267;DHT22;8241;48.786;9.250;2023-10-08T10:28:30;21.60;81.00
16267;DHT22;8241;48.786;9.250;2023-10-08T10:30:58;21.80;81.00
16267;DHT22;8241;48.786;9.250;2023-10-08T10:33:30;21.80;80.90
16267;DHT22;8241;48.786;9.250;2023-10-08T10:35:57;21.80;79.90
16267;DHT22;8241;48.786;9.250;2023-10-08T10:38:26;21.80;80.20
16267;DHT22;8241;48.786;9.250;2023-10-08T10:40:57;21.90;80.00
16267;DHT22;8241;48.786;9.250;2023-10-08T10:43:25;21.90;80.20
16267;DHT22;8241;48.786;9.250;2023-10-08T10:45:59;21.90;80.80
16267;DHT22;8241;48.786;9.250;2023-10-08T10:48:45;21.90;80.60
16267;DHT22;8241;48.786;9.250;2023-10-08T10:51:23;21.90;81.40
16267;DHT22;8241;48.786;9.250;2023-10-08T10:53:49;22.10;80.40
16267;DHT22;8241;48.786;9.250;2023-10-08T10:56:34;22.20;79.60
16267;DHT22;8241;48.786;9.250;2023-10-08T10:59:08;22.00;81.40
16267;DHT22;8241;48.786;9.250;2023-10-08T11:01:48;21.80;81.40
16267;DHT22;8241;48.786;9.250;2023-10-08T11:04:18;21.90;83.20
16267;DHT22;8241;48.786;9.250;2023-10-08T11:06:47;22.40;80.40
16267;DHT22;8241;48.786;9.250;2023-10-08T11:09:16;22.70;79.00
16267;DHT22;8241;48.786;9.250;2023-10-08T11:12:03;22.80;79.60
16267;DHT22;8241;48.786;9.250;2023-10-08T11:14:37;22.70;78.70
16267;DHT22;8241;48.786;9.250;2023-10-08T11:17:12;22.50;79.50
16267;DHT22;8241;48.786;9.250;2023-10-08T11:19:41;22.20;79.80
16267;DHT22;8241;48.786;9.250;2023-10-08T11:22:11;22.00;81.50
16267;DHT22;8241;48.786;9.250;2023-10-08T11:24:42;21.80;83.90
16267;DHT22;8241;48.786;9.250;2023-10-08T11:27:16;21.70;83.60
16267;DHT22;8241;48.786;9.250;2023-10-08T11:29:44;21.70;82.90
16267;DHT22;8241;48.786;9.250;2023-10-08T11:32:12;21.80;84.20
16267;DHT22;8241;48.786;9.250;2023-10-08T11:34:41;22.20;81.50
16267;DHT22;8241;48.786;9.250;2023-10-08T11:37:08;22.40;80.60
16267;DHT22;8241;48.786;9.250;2023-10-08T11:39:46;22.50;79.50
16267;DHT22;8241;48.786;9.250;2023-10-08T11:42:15;22.50;79.60
16267;DHT22;8241;48.786;9.250;2023-10-08T11:44:59;22.60;80.00
16267;DHT22;8241;48.786;9.250;2023-10-08T11:47:43;22.70;78.90
16267;DHT22;8241;48.786;9.250;2023-10-08T11:50:11;22.70;78.90
16267;DHT22;8241;48.786;9.250;2023-10-08T11:52:42;22.60;78.30
16267;DHT22;8241;48.786;9.250;2023-10-08T11:55:09;22.50;79.00
16267;DHT22;8241;48.786;9.250;2023-10-08T11:57:41;22.40;79.40
16267;DHT22;8241;48.786;9.250;2023-10-08T12:00:12;22.20;80.70
16267;DHT22;8241;48.786;9.250;2023-10-08T12:02:44;22.20;80.90
16267;DHT22;8241;48.786;9.250;2023-10-08T12:05:11;22.50;79.70
16267;DHT22;8241;48.786;9.250;2023-10-08T12:07:45;22.70;80.50
16267;DHT22;8241;48.786;9.250;2023-10-08T12:10:12;22.80;79.10
16267;DHT22;8241;48.786;9.250;2023-10-08T12:12:40;22.90;78.80
16267;DHT22;8241;48.786;9.250;2023-10-08T12:15:08;23.00;79.40
16267;DHT22;8241;48.786;9.250;2023-10-08T12:17:35;23.00;78.80
16267;DHT22;8241;48.786;9.250;2023-10-08T12:20:07;23.00;78.20
16267;DHT22;8241;48.786;9.250;2023-10-08T12:22:49;23.10;79.40
16267;DHT22;8241;48.786;9.250;2023-10-08T12:25:16;23.30;78.70
16267;DHT22;8241;48.786;9.250;2023-10-08T12:27:44;23.50;77.90
16267;DHT22;8241;48.786;9.250;2023-10-08T12:30:11;23.70;77.10
16267;DHT22;8241;48.786;9.250;2023-10-08T12:32:38;23.60;77.10
16267;DHT22;8241;48.786;9.250;2023-10-08T12:35:09;23.70;77.00
16267;DHT22;8241;48.786;9.250;2023-10-08T12:37:38;23.60;77.80
16267;DHT22;8241;48.786;9.250;2023-10-08T12:40:06;23.70;76.90
16267;DHT22;8241;48.786;9.250;2023-10-08T12:42:38;23.90;75.10
16267;DHT22;8241;48.786;9.250;2023-10-08T12:45:07;23.80;76.00
16267;DHT22;8241;48.786;9.250;2023-10-08T12:47:38;23.80;76.50
16267;DHT22;8241;48.786;9.250;2023-10-08T12:50:06;23.80;76.80
16267;DHT22;8241;48.786;9.250;2023-10-08T12:52:33;23.80;75.80
16267;DHT22;8241;48.786;9.250;2023-10-08T12:55:01;24.00;76.30
16267;DHT22;8241;48.786;9.250;2023-10-08T12:57:30;24.10;75.60
16267;DHT22;8241;48.786;9.250;2023-10-08T13:00:00;24.20;75.90
16267;DHT22;8241;48.786;9.250;2023-10-08T13:02:30;24.30;75.80
16267;DHT22;8241;48.786;9.250;2023-10-08T13:04:57;24.20;75.20
16267;DHT22;8241;48.786;9.250;2023-10-08T13:07:25;24.40;75.90
16267;DHT22;8241;48.786;9.250;2023-10-08T13:09:52;24.40;77.00
16267;DHT22;8241;48.786;9.250;2023-10-08T13:12:19;24.40;76.40
16267;DHT22;8241;48.786;9.250;2023-10-08T13:15:00;24.20;76.50
16267;DHT22;8241;48.786;9.250;2023-10-08T13:17:33;24.10;76.80
16267;DHT22;8241;48.786;9.250;2023-10-08T13:20:00;24.10;76.80
16267;DHT22;8241;48.786;9.250;2023-10-08T13:22:28;23.90;77.80
16267;DHT22;8241;48.786;9.250;2023-10-08T13:24:59;24.10;77.20
16267;DHT22;8241;48.786;9.250;2023-10-08T13:27:30;24.20;74.60
16267;DHT22;8241;48.786;9.250;2023-10-08T13:29:57;24.30;75.50
16267;DHT22;8241;48.786;9.250;2023-10-08T13:32:24;24.20;75.90
16267;DHT22;8241;48.786;9.250;2023-10-08T13:34:53;24.20;76.60
16267;DHT22;8241;48.786;9.250;2023-10-08T13:37:20;24.20;77.60
16267;DHT22;8241;48.786;9.250;2023-10-08T13:39:46;24.20;75.80
16267;DHT22;8241;48.786;9.250;2023-10-08T13:42:13;24.20;75.10
16267;DHT22;8241;48.786;9.250;2023-10-08T13:44:46;24.20;75.00
16267;DHT22;8241;48.786;9.250;2023-10-08T13:47:14;24.20;75.20
16267;DHT22;8241;48.786;9.250;2023-10-08T13:49:42;24.20;76.30
16267;DHT22;8241;48.786;9.250;2023-10-08T13:52:10;24.20;75.90
16267;DHT22;8241;48.786;9.250;2023-10-08T13:54:37;24.20;75.90
16267;DHT22;8241;48.786;9.250;2023-10-08T13:57:07;24.10;75.30
16267;DHT22;8241;48.786;9.250;2023-10-08T13:59:34;24.00;75.50
16267;DHT22;8241;48.786;9.250;2023-10-08T14:02:02;24.00;73.70
16267;DHT22;8241;48.786;9.250;2023-10-08T14:04:39;24.00;73.20
16267;DHT22;8241;48.786;9.250;2023-10-08T14:07:10;23.90;73.90
16267;DHT22;8241;48.786;9.250;2023-10-08T14:09:42;24.00;73.20
16267;DHT22;8241;48.786;9.250;2023-10-08T14:12:11;23.90;73.70
16267;DHT22;8241;48.786;9.250;2023-10-08T14:14:39;23.90;72.60
16267;DHT22;8241;48.786;9.250;2023-10-08T14:17:09;23.80;75.80
16267;DHT22;8241;48.786;9.250;2023-10-08T14:19:40;23.80;78.00
16267;DHT22;8241;48.786;9.250;2023-10-08T14:22:13;23.80;79.40
16267;DHT22;8241;48.786;9.250;2023-10-08T14:24:47;23.80;78.90
16267;DHT22;8241;48.786;9.250;2023-10-08T14:27:24;23.80;79.50
16267;DHT22;8241;48.786;9.250;2023-10-08T14:29:56;23.70;79.60
16267;DHT22;8241;48.786;9.250;2023-10-08T14:32:26;23.70;79.60
16267;DHT22;8241;48.786;9.250;2023-10-08T14:34:53;23.60;80.20
16267;DHT22;8241;48.786;9.250;2023-10-08T14:37:39;23.70;79.80
16267;DHT22;8241;48.786;9.250;2023-10-08T14:40:32;23.60;77.80
16267;DHT22;8241;48.786;9.250;2023-10-08T14:43:16;23.60;79.80
16267;DHT22;8241;48.786;9.250;2023-10-08T14:45:45;23.50;79.50
16267;DHT22;8241;48.786;9.250;2023-10-08T14:48:13;23.50;80.50
16267;DHT22;8241;48.786;9.250;2023-10-08T14:50:40;23.50;80.80
16267;DHT22;8241;48.786;9.250;2023-10-08T14:53:08;23.40;81.50
16267;DHT22;8241;48.786;9.250;2023-10-08T14:55:36;23.40;82.10
16267;DHT22;8241;48.786;9.250;2023-10-08T14:58:03;23.40;82.10
16267;DHT22;8241;48.786;9.250;2023-10-08T15:00:33;23.30;82.20
16267;DHT22;8241;48.786;9.250;2023-10-08T15:03:01;23.40;81.60
16267;DHT22;8241;48.786;9.250;2023-10-08T15:05:29;23.30;82.20
16267;DHT22;8241;48.786;9.250;2023-10-08T15:07:57;23.20;82.20
16267;DHT22;8241;48.786;9.250;2023-10-08T15:10:25;23.20;82.90
16267;DHT22;8241;48.786;9.250;2023-10-08T15:12:52;23.20;83.00
16267;DHT22;8241;48.786;9.250;2023-10-08T15:15:19;23.10;83.30
16267;DHT22;8241;48.786;9.250;2023-10-08T15:17:53;23.10;83.10
16267;DHT22;8241;48.786;9.250;2023-10-08T15:20:20;23.10;84.00
16267;DHT22;8241;48.786;9.250;2023-10-08T15:22:49;23.10;83.90
16267;DHT22;8241;48.786;9.250;2023-10-08T15:25:17;23.10;83.60
16267;DHT22;8241;48.786;9.250;2023-10-08T15:27:46;23.10;83.50
16267;DHT22;8241;48.786;9.250;2023-10-08T15:30:15;23.20;82.60
16267;DHT22;8241;48.786;9.250;2023-10-08T15:32:45;23.20;83.20
16267;DHT22;8241;48.786;9.250;2023-10-08T15:35:15;23.10;83.50
16267;DHT22;8241;48.786;9.250;2023-10-08T15:37:45;23.00;83.30
16267;DHT22;8241;48.786;9.250;2023-10-08T15:40:13;22.90;83.10
16267;DHT22;8241;48.786;9.250;2023-10-08T15:42:48;22.80;83.10
16267;DHT22;8241;48.786;9.250;2023-10-08T15:45:15;22.80;83.70
16267;DHT22;8241;48.786;9.250;2023-10-08T15:47:42;22.70;84.10
16267;DHT22;8241;48.786;9.250;2023-10-08T15:50:09;22.60;84.50
16267;DHT22;8241;48.786;9.250;2023-10-08T15:52:37;22.50;84.80
16267;DHT22;8241;48.786;9.250;2023-10-08T15:55:06;22.40;85.80
16267;DHT22;8241;48.786;9.250;2023-10-08T15:57:33;22.30;87.10
16267;DHT22;8241;48.786;9.250;2023-10-08T16:00:02;22.20;88.50
16267;DHT22;8241;48.786;9.250;2023-10-08T16:02:29;22.10;89.20
16267;DHT22;8241;48.786;9.250;2023-10-08T16:04:56;22.00;87.90
16267;DHT22;8241;48.786;9.250;2023-10-08T16:07:23;22.00;87.80
16267;DHT22;8241;48.786;9.250;2023-10-08T16:09:50;21.90;89.50
16267;DHT22;8241;48.786;9.250;2023-10-08T16:12:17;21.90;90.60